• Join FlightAware (Why Join?)
  • Login
  • US Flag 
12:11AM EDT


 

Airport Tracker/Info


-or-


 

Live Flight TrackerFlight Track Log ✈ N411WC ✈ 22-Apr-2014 ✈ KUAO - CYYC

Flight Track Log - Related Links

Times and Time Zones

All times are in EDT time to prevent confusion due to time zone crossing. See the N411WC flight status page for this flight to view local times or setup timezone preferences in your user account.

Time Position Orientation Groundspeed Altitude Reporting Facility
EDT Latitude Longitude Course Direction KTS MPH feet Rate Location/Type
09:09AM 45.2800 -122.7594 77° East 156 180 1,700  Level Seattle Center
09:09AM 45.2839 -122.7361 77° East 178 205 2,600 1,620 Climbing Seattle Center
09:10AM 45.2778 -122.6619 97° East 209 241 4,000 1,140 Climbing Seattle Center
09:11AM 45.3133 -122.5922 54° Northeast 230 265 4,900 1,260 Climbing Seattle Center
09:12AM 45.3639 -122.5533 28° Northeast 203 234 6,600 1,740 Climbing Seattle Center
09:13AM 45.3911 -122.5283 33° Northeast 209 241 7,600 1,860 Climbing Seattle Center
09:13AM 45.4139 -122.5111 28° Northeast 213 245 8,500 1,800 Climbing Seattle Center
09:14AM 45.4422 -122.4856 32° Northeast 211 243 9,400 1,740 Climbing Seattle Center
09:15AM 45.4956 -122.4414 30° Northeast 219 252 11,200 1,800 Climbing Seattle Center
09:16AM 45.5519 -122.3953 30° Northeast 233 268 13,100 1,860 Climbing Seattle Center
09:17AM 45.5989 -122.3311 44° Northeast 238 274 15,000 1,740 Climbing Seattle Center
09:18AM 45.6500 -122.2542 46° Northeast 251 289 16,700 1,380 Climbing Seattle Center
09:19AM 45.6911 -122.1903 47° Northeast 262 302 17,900 1,380 Climbing Seattle Center
09:20AM 45.7397 -122.1125 48° Northeast 263 303 19,500 1,320 Climbing Seattle Center
09:21AM 45.7886 -122.0333 48° Northeast 263 303 20,600 1,260 Climbing Seattle Center
09:22AM 45.8475 -121.9444 46° Northeast 265 305 22,100 1,320 Climbing Seattle Center
09:23AM 45.8972 -121.8653 48° Northeast 266 306 23,300 1,140 Climbing Seattle Center
09:24AM 45.9472 -121.7856 48° Northeast 267 307 24,400 840 Climbing Seattle Center
09:25AM 45.9972 -121.7064 48° Northeast 267 307 25,000 240 Climbing Seattle Center
09:26AM 46.0514 -121.6183 48° Northeast 287 330 25,000  Level Seattle Center
09:27AM 46.1081 -121.5286 48° Northeast 298 343 25,000  Level Seattle Center
09:28AM 46.1647 -121.4375 48° Northeast 300 345 25,000  Level Seattle Center
09:29AM 46.2225 -121.3464 47° Northeast 305 351 25,000  Level Seattle Center
09:30AM 46.2797 -121.2567 47° Northeast 305 351 25,000  Level Seattle Center
09:31AM 46.3361 -121.1622 49° Northeast 307 353 25,000  Level Seattle Center
09:32AM 46.3931 -121.0711 48° Northeast 307 353 25,000 120 Level Seattle Center
09:33AM 46.4511 -120.9786 48° Northeast 308 354 25,300 360 Climbing Seattle Center
09:34AM 46.5067 -120.8875 48° Northeast 304 350 25,800 480 Climbing Seattle Center
09:35AM 46.5614 -120.8003 48° Northeast 295 339 26,300 480 Climbing Seattle Center
09:36AM 46.6139 -120.7128 49° Northeast 291 335 26,800 300 Climbing Seattle Center
09:37AM 46.6764 -120.6322 41° Northeast 297 342 27,000 60 Climbing Seattle Center
09:38AM 46.7539 -120.5311 42° Northeast 311 358 27,000 240 Level Seattle Center
09:39AM 46.8175 -120.4472 42° Northeast 313 360 27,500 540 Climbing Seattle Center
09:40AM 46.8822 -120.3644 41° Northeast 311 358 28,100 540 Climbing Seattle Center
09:41AM 46.9444 -120.2822 42° Northeast 307 353 28,700 420 Climbing Seattle Center
09:42AM 47.0075 -120.1997 42° Northeast 305 351 29,000 120 Climbing Seattle Center
09:43AM 47.0736 -120.1117 42° Northeast 326 375 29,000  Level Seattle Center
09:44AM 47.1433 -120.0194 42° Northeast 336 387 29,000 -60 Level Seattle Center
09:45AM 47.2153 -119.9250 42° Northeast 345 397 28,900  Descending Seattle Center
09:46AM 47.2878 -119.8294 42° Northeast 349 402 29,000  Climbing Seattle Center
09:47AM 47.3594 -119.7336 42° Northeast 349 402 29,000  Level Seattle Center
09:48AM 47.4311 -119.6350 43° Northeast 350 403 29,000  Level Seattle Center
09:49AM 47.5047 -119.5381 42° Northeast 353 406 29,000  Level Seattle Center
09:50AM 47.5758 -119.4389 43° Northeast 353 406 29,000  Level Seattle Center
09:51AM 47.6494 -119.3411 42° Northeast 354 407 29,000  Level Seattle Center
09:52AM 47.7219 -119.2422 43° Northeast 354 407 29,000  Level Seattle Center
09:53AM 47.7942 -119.1417 43° Northeast 355 409 29,000  Level Seattle Center
09:54AM 47.8828 -119.0211 42° Northeast 357 411 29,000  Level Seattle Center
09:55AM 47.9561 -118.9197 43° Northeast 358 412 29,000  Level Seattle Center
09:56AM 48.0308 -118.8164 43° Northeast 363 418 29,000  Level Seattle Center
09:57AM 48.1058 -118.7136 42° Northeast 367 422 29,000  Level Seattle Center
09:58AM 48.1825 -118.6089 42° Northeast 373 429 29,000  Level Seattle Center
09:59AM 48.2531 -118.5069 44° Northeast 364 419 29,000  Level Seattle Center
10:00AM 48.3267 -118.4028 43° Northeast 360 414 29,000  Level Seattle Center
10:01AM 48.3986 -118.3000 43° Northeast 360 414 29,000  Level Seattle Center
10:02AM 48.4733 -118.1961 43° Northeast 361 415 29,000  Level Seattle Center
10:03AM 48.5458 -118.0911 44° Northeast 361 415 29,000  Level Seattle Center
10:04AM 48.6194 -117.9875 43° Northeast 361 415 29,000  Level Seattle Center
10:05AM 48.6919 -117.8814 44° Northeast 361 415 29,000  Level Seattle Center
10:06AM 48.7667 -117.7500 49° Northeast 360 414 29,000  Level Vancouver Center
10:07AM 48.8167 -117.6333 57° Northeast 360 414 29,000  Level Vancouver Center
10:08AM 48.9000 -117.5500 33° Northeast 350 403 29,000  Level Vancouver Center
10:09AM 48.9667 -117.4333 49° Northeast 350 403 29,000  Level Vancouver Center
10:10AM 49.0333 -117.3333 45° Northeast 350 403 29,000  Level Vancouver Center
10:11AM 49.1000 -117.2167 49° Northeast 340 391 29,000  Level Vancouver Center
10:12AM 49.1333 -117.2167 360° North 340 391 29,000  Level Edmonton Center
10:13AM 49.2333 -117.0167 53° Northeast 340 391 29,000  Level Vancouver Center
10:14AM 49.3167 -116.9333 33° Northeast 340 391 29,000 -300 Level Vancouver Center
10:15AM 49.3667 -116.8167 57° Northeast 350 403 28,400 -660 Descending Vancouver Center
10:16AM 49.4500 -116.7000 42° Northeast 360 414 27,700 -720 Descending Vancouver Center
10:17AM 49.5167 -116.6167 39° Northeast 360 414 27,000 -360 Descending Vancouver Center
10:18AM 49.5833 -116.5000 49° Northeast 350 403 27,000  Level Vancouver Center
10:19AM 49.6500 -116.3833 49° Northeast 340 391 27,000  Level Vancouver Center
10:20AM 49.7333 -116.3000 33° Northeast 330 380 27,000  Level Vancouver Center
10:21AM 49.7833 -116.1833 56° Northeast 330 380 27,000  Level Vancouver Center
10:22AM 49.8500 -116.1000 39° Northeast 330 380 27,000  Level Vancouver Center
10:23AM 49.9167 -116.0167 39° Northeast 330 380 27,000  Level Vancouver Center
10:24AM 49.9833 -115.9000 48° Northeast 330 380 27,000  Level Vancouver Center
10:25AM 50.0500 -115.8000 44° Northeast 320 368 27,000  Level Vancouver Center
10:26AM 50.1000 -115.7000 52° Northeast 320 368 27,000  Level Vancouver Center
10:27AM 50.1667 -115.6000 44° Northeast 320 368 27,000  Level Vancouver Center
10:28AM 50.2333 -115.5167 39° Northeast 320 368 27,000  Level Vancouver Center
10:29AM 50.2833 -115.4000 56° Northeast 320 368 27,000  Level Vancouver Center
10:30AM 50.3167 -115.4000 360° North 320 368 27,000  Level Edmonton Center
10:31AM 50.3833 -115.3000 44° Northeast 320 368 27,000 -120 Level Edmonton Center
10:32AM 50.4333 -115.1833 56° Northeast 320 368 26,800 -1,440 Descending Edmonton Center
10:33AM 50.5000 -115.0833 44° Northeast 330 380 24,200 -3,000 Descending Edmonton Center
10:34AM 50.5833 -114.9667 42° Northeast 350 403 20,900 -3,120 Descending Edmonton Center
10:35AM 50.6333 -114.8500 56° Northeast 350 403 18,000 -3,000 Descending Edmonton Center
10:36AM 50.6667 -114.7167 68° East 330 380 15,000 -2,400 Descending Edmonton Center
10:37AM 50.7167 -114.6000 56° Northeast 290 334 13,300 -1,200 Descending Edmonton Center
10:38AM 50.7667 -114.5000 52° Northeast 300 345 12,600 -780 Descending Edmonton Center
10:39AM 50.8167 -114.4000 52° Northeast 300 345 11,800 -900 Descending Edmonton Center
10:40AM 50.8833 -114.3167 38° Northeast 290 334 10,900 -900 Descending Edmonton Center
10:41AM 50.9500 -114.2667 25° Northeast 280 322 10,100 -1,320 Descending Edmonton Center
10:42AM 51.0333 -114.2667 360° North 250 288 8,300 -1,080 Descending Edmonton Center
10:43AM 51.0833 -114.3000 337° Northwest 240 276 8,000 -120 Descending Edmonton Center
10:44AM 51.1167 -114.4000 298° West 230 265 8,100  Climbing Edmonton Center
10:45AM 51.1667 -114.4000 360° North 240 276 8,100 -300 Level Edmonton Center
10:46AM 51.2000 -114.3500 43° Northeast 210 242 7,600 -780 Descending Edmonton Center
10:47AM 51.1667 -114.2667 123° Southeast 190 219 6,600 -1,020 Descending Edmonton Center
10:48AM 51.1333 -114.2000 129° Southeast 160 184 5,600 -900 Descending Edmonton Center
10:49AM 51.1333 -114.1500 90° East 150 173 4,800 -720 Descending Edmonton Center
10:51AM 51.0833 -114.0333 124° Southeast 60 69 3,600 -240 Descending Edmonton Center
10:55AM 51.0667 -114.0333 180° South 20 23 3,600  Level Edmonton Center